sensor_id;sensor_type;location;lat;lon;timestamp;P1;durP1;ratioP1;P2;durP2;ratioP2
59093;SDS011;44880;52.814;18.270;2023-05-31T00:02:15;13.00;;;3.70;;
59093;SDS011;44880;52.814;18.270;2023-05-31T00:04:47;10.90;;;3.90;;
59093;SDS011;44880;52.814;18.270;2023-05-31T00:07:19;11.70;;;4.00;;
59093;SDS011;44880;52.814;18.270;2023-05-31T00:09:50;10.70;;;3.60;;
59093;SDS011;44880;52.814;18.270;2023-05-31T00:12:22;11.80;;;3.80;;
59093;SDS011;44880;52.814;18.270;2023-05-31T00:14:53;10.90;;;3.90;;
59093;SDS011;44880;52.814;18.270;2023-05-31T00:17:25;11.20;;;3.60;;
59093;SDS011;44880;52.814;18.270;2023-05-31T00:19:56;13.10;;;4.30;;
59093;SDS011;44880;52.814;18.270;2023-05-31T00:22:28;11.20;;;4.10;;
59093;SDS011;44880;52.814;18.270;2023-05-31T00:25:00;11.10;;;3.30;;
59093;SDS011;44880;52.814;18.270;2023-05-31T00:27:31;12.40;;;3.80;;
59093;SDS011;44880;52.814;18.270;2023-05-31T00:32:34;11.90;;;3.90;;
59093;SDS011;44880;52.814;18.270;2023-05-31T00:35:06;12.70;;;3.70;;
59093;SDS011;44880;52.814;18.270;2023-05-31T00:37:38;10.90;;;3.90;;
59093;SDS011;44880;52.814;18.270;2023-05-31T00:40:10;10.70;;;3.90;;
59093;SDS011;44880;52.814;18.270;2023-05-31T00:45:12;12.10;;;4.10;;
59093;SDS011;44880;52.814;18.270;2023-05-31T00:47:43;13.70;;;4.10;;
59093;SDS011;44880;52.814;18.270;2023-05-31T00:50:15;13.40;;;4.10;;
59093;SDS011;44880;52.814;18.270;2023-05-31T00:52:48;12.40;;;4.10;;
59093;SDS011;44880;52.814;18.270;2023-05-31T00:55:21;12.30;;;4.50;;
59093;SDS011;44880;52.814;18.270;2023-05-31T00:57:53;11.40;;;3.70;;
59093;SDS011;44880;52.814;18.270;2023-05-31T01:00:24;12.50;;;4.30;;
59093;SDS011;44880;52.814;18.270;2023-05-31T01:02:56;11.30;;;4.20;;
59093;SDS011;44880;52.814;18.270;2023-05-31T01:05:30;10.60;;;3.90;;
59093;SDS011;44880;52.814;18.270;2023-05-31T01:08:02;13.00;;;5.90;;
59093;SDS011;44880;52.814;18.270;2023-05-31T01:10:34;13.60;;;5.20;;
59093;SDS011;44880;52.814;18.270;2023-05-31T01:13:07;18.60;;;5.20;;
59093;SDS011;44880;52.814;18.270;2023-05-31T01:15:46;12.80;;;5.50;;
59093;SDS011;44880;52.814;18.270;2023-05-31T01:18:20;14.30;;;5.20;;
59093;SDS011;44880;52.814;18.270;2023-05-31T01:20:55;13.10;;;5.00;;
59093;SDS011;44880;52.814;18.270;2023-05-31T01:23:39;15.30;;;6.40;;
59093;SDS011;44880;52.814;18.270;2023-05-31T01:26:23;13.30;;;5.70;;
59093;SDS011;44880;52.814;18.270;2023-05-31T01:29:04;17.50;;;6.60;;
59093;SDS011;44880;52.814;18.270;2023-05-31T01:31:37;16.20;;;6.90;;
59093;SDS011;44880;52.814;18.270;2023-05-31T01:34:09;15.40;;;5.20;;
59093;SDS011;44880;52.814;18.270;2023-05-31T01:36:41;13.20;;;4.70;;
59093;SDS011;44880;52.814;18.270;2023-05-31T01:41:43;16.30;;;6.60;;
59093;SDS011;44880;52.814;18.270;2023-05-31T01:44:17;13.80;;;5.20;;
59093;SDS011;44880;52.814;18.270;2023-05-31T01:46:48;13.40;;;4.80;;
59093;SDS011;44880;52.814;18.270;2023-05-31T01:49:20;16.80;;;5.40;;
59093;SDS011;44880;52.814;18.270;2023-05-31T01:51:53;14.00;;;5.00;;
59093;SDS011;44880;52.814;18.270;2023-05-31T01:54:24;14.30;;;5.30;;
59093;SDS011;44880;52.814;18.270;2023-05-31T01:56:56;15.50;;;5.30;;
59093;SDS011;44880;52.814;18.270;2023-05-31T01:59:28;11.40;;;4.70;;
59093;SDS011;44880;52.814;18.270;2023-05-31T02:02:00;14.90;;;6.20;;
59093;SDS011;44880;52.814;18.270;2023-05-31T02:04:33;17.70;;;7.30;;
59093;SDS011;44880;52.814;18.270;2023-05-31T02:07:05;20.10;;;8.20;;
59093;SDS011;44880;52.814;18.270;2023-05-31T02:09:37;16.80;;;8.10;;
59093;SDS011;44880;52.814;18.270;2023-05-31T02:12:09;20.30;;;7.80;;
59093;SDS011;44880;52.814;18.270;2023-05-31T02:14:41;17.90;;;8.00;;
59093;SDS011;44880;52.814;18.270;2023-05-31T02:17:12;15.30;;;6.60;;
59093;SDS011;44880;52.814;18.270;2023-05-31T02:19:44;15.50;;;7.20;;
59093;SDS011;44880;52.814;18.270;2023-05-31T02:22:16;17.70;;;7.50;;
59093;SDS011;44880;52.814;18.270;2023-05-31T02:24:47;16.40;;;6.80;;
59093;SDS011;44880;52.814;18.270;2023-05-31T02:27:19;15.00;;;6.40;;
59093;SDS011;44880;52.814;18.270;2023-05-31T02:29:53;13.60;;;5.70;;
59093;SDS011;44880;52.814;18.270;2023-05-31T02:32:24;16.20;;;6.30;;
59093;SDS011;44880;52.814;18.270;2023-05-31T02:34:56;15.20;;;6.00;;
59093;SDS011;44880;52.814;18.270;2023-05-31T02:37:27;16.40;;;6.60;;
59093;SDS011;44880;52.814;18.270;2023-05-31T02:39:59;17.80;;;6.90;;
59093;SDS011;44880;52.814;18.270;2023-05-31T02:42:35;14.40;;;6.30;;
59093;SDS011;44880;52.814;18.270;2023-05-31T02:45:08;14.30;;;6.00;;
59093;SDS011;44880;52.814;18.270;2023-05-31T02:47:41;13.20;;;6.10;;
59093;SDS011;44880;52.814;18.270;2023-05-31T02:50:13;13.90;;;6.00;;
59093;SDS011;44880;52.814;18.270;2023-05-31T02:52:54;12.60;;;5.70;;
59093;SDS011;44880;52.814;18.270;2023-05-31T02:55:55;12.90;;;5.50;;
59093;SDS011;44880;52.814;18.270;2023-05-31T02:58:43;13.80;;;6.40;;
59093;SDS011;44880;52.814;18.270;2023-05-31T03:01:38;14.50;;;5.70;;
59093;SDS011;44880;52.814;18.270;2023-05-31T03:04:30;17.50;;;7.70;;
59093;SDS011;44880;52.814;18.270;2023-05-31T03:07:01;14.40;;;7.20;;
59093;SDS011;44880;52.814;18.270;2023-05-31T03:09:33;13.30;;;5.90;;
59093;SDS011;44880;52.814;18.270;2023-05-31T03:12:06;12.20;;;5.50;;
59093;SDS011;44880;52.814;18.270;2023-05-31T03:14:39;12.90;;;5.10;;
59093;SDS011;44880;52.814;18.270;2023-05-31T03:17:10;12.70;;;5.30;;
59093;SDS011;44880;52.814;18.270;2023-05-31T03:19:42;13.30;;;5.20;;
59093;SDS011;44880;52.814;18.270;2023-05-31T03:22:14;11.60;;;4.90;;
59093;SDS011;44880;52.814;18.270;2023-05-31T03:24:45;12.60;;;4.50;;
59093;SDS011;44880;52.814;18.270;2023-05-31T03:27:19;13.50;;;5.70;;
59093;SDS011;44880;52.814;18.270;2023-05-31T03:29:50;12.10;;;5.70;;
59093;SDS011;44880;52.814;18.270;2023-05-31T03:32:22;13.20;;;5.30;;
59093;SDS011;44880;52.814;18.270;2023-05-31T03:34:53;13.70;;;5.30;;
59093;SDS011;44880;52.814;18.270;2023-05-31T03:37:25;13.60;;;5.50;;
59093;SDS011;44880;52.814;18.270;2023-05-31T03:40:08;14.00;;;5.90;;
59093;SDS011;44880;52.814;18.270;2023-05-31T03:42:40;13.20;;;5.70;;
59093;SDS011;44880;52.814;18.270;2023-05-31T03:45:11;11.90;;;5.10;;
59093;SDS011;44880;52.814;18.270;2023-05-31T03:47:43;14.40;;;5.30;;
59093;SDS011;44880;52.814;18.270;2023-05-31T03:50:15;12.50;;;6.30;;
59093;SDS011;44880;52.814;18.270;2023-05-31T03:52:46;13.50;;;5.80;;
59093;SDS011;44880;52.814;18.270;2023-05-31T03:55:18;14.60;;;6.40;;
59093;SDS011;44880;52.814;18.270;2023-05-31T04:00:20;13.00;;;5.80;;
59093;SDS011;44880;52.814;18.270;2023-05-31T04:05:23;13.50;;;5.30;;
59093;SDS011;44880;52.814;18.270;2023-05-31T04:07:55;12.80;;;5.20;;
59093;SDS011;44880;52.814;18.270;2023-05-31T04:10:27;12.80;;;4.70;;
59093;SDS011;44880;52.814;18.270;2023-05-31T04:12:59;11.60;;;4.80;;
59093;SDS011;44880;52.814;18.270;2023-05-31T04:15:31;12.00;;;5.50;;
59093;SDS011;44880;52.814;18.270;2023-05-31T04:18:04;13.70;;;5.10;;
59093;SDS011;44880;52.814;18.270;2023-05-31T04:20:36;14.90;;;5.10;;
59093;SDS011;44880;52.814;18.270;2023-05-31T04:23:08;11.40;;;4.60;;
59093;SDS011;44880;52.814;18.270;2023-05-31T04:28:13;12.90;;;5.30;;
59093;SDS011;44880;52.814;18.270;2023-05-31T04:30:47;10.90;;;4.70;;
59093;SDS011;44880;52.814;18.270;2023-05-31T04:33:20;10.60;;;4.60;;
59093;SDS011;44880;52.814;18.270;2023-05-31T04:35:52;9.50;;;4.20;;
59093;SDS011;44880;52.814;18.270;2023-05-31T04:38:25;12.20;;;4.40;;
59093;SDS011;44880;52.814;18.270;2023-05-31T04:40:57;11.70;;;4.70;;
59093;SDS011;44880;52.814;18.270;2023-05-31T04:43:29;11.70;;;4.00;;
59093;SDS011;44880;52.814;18.270;2023-05-31T04:46:01;10.60;;;4.10;;
59093;SDS011;44880;52.814;18.270;2023-05-31T04:51:03;10.80;;;4.10;;
59093;SDS011;44880;52.814;18.270;2023-05-31T04:53:36;12.00;;;4.40;;
59093;SDS011;44880;52.814;18.270;2023-05-31T04:56:08;12.00;;;4.60;;
59093;SDS011;44880;52.814;18.270;2023-05-31T04:58:41;12.40;;;4.50;;
59093;SDS011;44880;52.814;18.270;2023-05-31T05:01:12;11.50;;;4.70;;
59093;SDS011;44880;52.814;18.270;2023-05-31T05:04:00;9.60;;;3.90;;
59093;SDS011;44880;52.814;18.270;2023-05-31T05:06:32;11.60;;;3.70;;
59093;SDS011;44880;52.814;18.270;2023-05-31T05:09:06;11.40;;;3.80;;
59093;SDS011;44880;52.814;18.270;2023-05-31T05:11:38;13.50;;;4.30;;
59093;SDS011;44880;52.814;18.270;2023-05-31T05:14:10;11.50;;;4.40;;
59093;SDS011;44880;52.814;18.270;2023-05-31T05:16:42;11.10;;;4.80;;
59093;SDS011;44880;52.814;18.270;2023-05-31T05:19:14;11.80;;;4.90;;
59093;SDS011;44880;52.814;18.270;2023-05-31T05:21:46;12.40;;;4.80;;
59093;SDS011;44880;52.814;18.270;2023-05-31T05:24:18;10.40;;;4.50;;
59093;SDS011;44880;52.814;18.270;2023-05-31T05:26:50;10.60;;;4.10;;
59093;SDS011;44880;52.814;18.270;2023-05-31T05:29:22;10.10;;;4.30;;
59093;SDS011;44880;52.814;18.270;2023-05-31T05:31:53;10.20;;;3.80;;
59093;SDS011;44880;52.814;18.270;2023-05-31T05:34:30;9.20;;;2.70;;
59093;SDS011;44880;52.814;18.270;2023-05-31T05:37:33;8.60;;;2.90;;
59093;SDS011;44880;52.814;18.270;2023-05-31T05:40:07;9.10;;;3.30;;
59093;SDS011;44880;52.814;18.270;2023-05-31T05:42:40;10.30;;;2.90;;
59093;SDS011;44880;52.814;18.270;2023-05-31T05:45:12;7.90;;;2.50;;
59093;SDS011;44880;52.814;18.270;2023-05-31T05:47:45;9.10;;;3.00;;
59093;SDS011;44880;52.814;18.270;2023-05-31T05:50:18;10.50;;;2.60;;
59093;SDS011;44880;52.814;18.270;2023-05-31T05:52:50;7.80;;;2.00;;
59093;SDS011;44880;52.814;18.270;2023-05-31T05:55:22;7.90;;;2.10;;
59093;SDS011;44880;52.814;18.270;2023-05-31T05:57:55;7.80;;;1.90;;
59093;SDS011;44880;52.814;18.270;2023-05-31T06:00:47;8.20;;;2.40;;
59093;SDS011;44880;52.814;18.270;2023-05-31T06:03:19;9.90;;;2.30;;
59093;SDS011;44880;52.814;18.270;2023-05-31T06:05:51;6.90;;;2.50;;
59093;SDS011;44880;52.814;18.270;2023-05-31T06:08:23;9.30;;;2.80;;
59093;SDS011;44880;52.814;18.270;2023-05-31T06:10:55;10.30;;;2.70;;
59093;SDS011;44880;52.814;18.270;2023-05-31T06:13:27;10.50;;;2.70;;
59093;SDS011;44880;52.814;18.270;2023-05-31T06:16:01;8.60;;;2.70;;
59093;SDS011;44880;52.814;18.270;2023-05-31T06:18:33;11.10;;;2.50;;
59093;SDS011;44880;52.814;18.270;2023-05-31T06:21:05;8.90;;;2.60;;
59093;SDS011;44880;52.814;18.270;2023-05-31T06:23:37;11.40;;;2.60;;
59093;SDS011;44880;52.814;18.270;2023-05-31T06:26:09;8.10;;;2.40;;
59093;SDS011;44880;52.814;18.270;2023-05-31T06:28:41;9.00;;;2.30;;
59093;SDS011;44880;52.814;18.270;2023-05-31T06:31:24;7.40;;;1.80;;
59093;SDS011;44880;52.814;18.270;2023-05-31T06:36:26;5.70;;;1.60;;
59093;SDS011;44880;52.814;18.270;2023-05-31T06:38:58;6.80;;;1.50;;
59093;SDS011;44880;52.814;18.270;2023-05-31T06:41:30;6.60;;;1.50;;
59093;SDS011;44880;52.814;18.270;2023-05-31T06:44:05;7.00;;;1.70;;
59093;SDS011;44880;52.814;18.270;2023-05-31T06:46:42;8.10;;;1.70;;
59093;SDS011;44880;52.814;18.270;2023-05-31T06:49:53;5.80;;;1.60;;
59093;SDS011;44880;52.814;18.270;2023-05-31T06:52:56;7.70;;;2.10;;
59093;SDS011;44880;52.814;18.270;2023-05-31T06:55:34;6.30;;;1.70;;
59093;SDS011;44880;52.814;18.270;2023-05-31T06:58:07;7.30;;;1.80;;
59093;SDS011;44880;52.814;18.270;2023-05-31T07:03:09;6.30;;;1.40;;
59093;SDS011;44880;52.814;18.270;2023-05-31T07:05:40;4.30;;;1.30;;
59093;SDS011;44880;52.814;18.270;2023-05-31T07:11:04;6.10;;;1.50;;
59093;SDS011;44880;52.814;18.270;2023-05-31T07:13:36;7.20;;;1.60;;
59093;SDS011;44880;52.814;18.270;2023-05-31T07:16:08;5.60;;;1.40;;
59093;SDS011;44880;52.814;18.270;2023-05-31T07:18:40;6.70;;;1.40;;
59093;SDS011;44880;52.814;18.270;2023-05-31T07:21:13;6.70;;;1.60;;
59093;SDS011;44880;52.814;18.270;2023-05-31T07:23:45;7.30;;;1.50;;
59093;SDS011;44880;52.814;18.270;2023-05-31T07:26:17;5.90;;;1.40;;
59093;SDS011;44880;52.814;18.270;2023-05-31T07:31:21;4.60;;;1.30;;
59093;SDS011;44880;52.814;18.270;2023-05-31T07:33:53;5.90;;;1.30;;
59093;SDS011;44880;52.814;18.270;2023-05-31T07:36:25;7.80;;;1.30;;
59093;SDS011;44880;52.814;18.270;2023-05-31T07:38:56;5.40;;;1.20;;
59093;SDS011;44880;52.814;18.270;2023-05-31T07:41:29;4.90;;;1.30;;
59093;SDS011;44880;52.814;18.270;2023-05-31T07:44:00;6.00;;;1.40;;
59093;SDS011;44880;52.814;18.270;2023-05-31T07:46:33;5.10;;;1.20;;
59093;SDS011;44880;52.814;18.270;2023-05-31T07:49:05;5.00;;;1.20;;
59093;SDS011;44880;52.814;18.270;2023-05-31T07:51:37;5.70;;;1.60;;
59093;SDS011;44880;52.814;18.270;2023-05-31T07:54:09;5.60;;;1.20;;
59093;SDS011;44880;52.814;18.270;2023-05-31T07:56:41;4.10;;;1.10;;
59093;SDS011;44880;52.814;18.270;2023-05-31T07:59:13;6.10;;;1.20;;
59093;SDS011;44880;52.814;18.270;2023-05-31T08:01:46;5.00;;;1.20;;
59093;SDS011;44880;52.814;18.270;2023-05-31T08:04:18;5.00;;;1.20;;
59093;SDS011;44880;52.814;18.270;2023-05-31T08:06:49;5.80;;;1.30;;
59093;SDS011;44880;52.814;18.270;2023-05-31T08:09:21;5.10;;;1.10;;
59093;SDS011;44880;52.814;18.270;2023-05-31T08:14:23;7.60;;;1.80;;
59093;SDS011;44880;52.814;18.270;2023-05-31T08:16:54;8.00;;;1.80;;
59093;SDS011;44880;52.814;18.270;2023-05-31T08:19:26;5.20;;;1.40;;
59093;SDS011;44880;52.814;18.270;2023-05-31T08:21:59;6.50;;;1.70;;
59093;SDS011;44880;52.814;18.270;2023-05-31T08:24:30;6.90;;;1.80;;
59093;SDS011;44880;52.814;18.270;2023-05-31T08:27:02;7.60;;;1.90;;
59093;SDS011;44880;52.814;18.270;2023-05-31T08:29:35;8.30;;;2.20;;
59093;SDS011;44880;52.814;18.270;2023-05-31T08:32:06;6.10;;;1.90;;
59093;SDS011;44880;52.814;18.270;2023-05-31T08:37:09;6.90;;;2.00;;
59093;SDS011;44880;52.814;18.270;2023-05-31T08:39:40;5.70;;;1.60;;
59093;SDS011;44880;52.814;18.270;2023-05-31T08:42:14;7.20;;;2.00;;
59093;SDS011;44880;52.814;18.270;2023-05-31T08:44:47;7.30;;;1.80;;
59093;SDS011;44880;52.814;18.270;2023-05-31T08:47:22;5.70;;;1.70;;
59093;SDS011;44880;52.814;18.270;2023-05-31T08:49:57;6.70;;;1.50;;
59093;SDS011;44880;52.814;18.270;2023-05-31T08:52:30;4.70;;;1.40;;
59093;SDS011;44880;52.814;18.270;2023-05-31T08:55:09;6.70;;;1.80;;
59093;SDS011;44880;52.814;18.270;2023-05-31T08:57:41;4.70;;;1.20;;
59093;SDS011;44880;52.814;18.270;2023-05-31T09:00:13;6.30;;;1.40;;
59093;SDS011;44880;52.814;18.270;2023-05-31T09:02:47;5.10;;;1.30;;
59093;SDS011;44880;52.814;18.270;2023-05-31T09:05:32;4.80;;;1.30;;
59093;SDS011;44880;52.814;18.270;2023-05-31T09:10:34;5.70;;;1.40;;
59093;SDS011;44880;52.814;18.270;2023-05-31T09:13:10;4.30;;;1.20;;
59093;SDS011;44880;52.814;18.270;2023-05-31T09:15:43;5.50;;;1.20;;
59093;SDS011;44880;52.814;18.270;2023-05-31T09:18:16;6.50;;;1.50;;
59093;SDS011;44880;52.814;18.270;2023-05-31T09:20:49;5.90;;;1.20;;
59093;SDS011;44880;52.814;18.270;2023-05-31T09:23:24;4.00;;;1.10;;
59093;SDS011;44880;52.814;18.270;2023-05-31T09:25:56;6.80;;;1.40;;
59093;SDS011;44880;52.814;18.270;2023-05-31T09:28:41;3.80;;;1.10;;
59093;SDS011;44880;52.814;18.270;2023-05-31T09:31:19;5.00;;;1.40;;
59093;SDS011;44880;52.814;18.270;2023-05-31T09:33:58;6.40;;;1.50;;
59093;SDS011;44880;52.814;18.270;2023-05-31T09:36:30;4.20;;;1.10;;
59093;SDS011;44880;52.814;18.270;2023-05-31T09:39:03;5.00;;;1.40;;
59093;SDS011;44880;52.814;18.270;2023-05-31T09:41:36;5.30;;;1.40;;
59093;SDS011;44880;52.814;18.270;2023-05-31T09:44:08;6.10;;;1.50;;
59093;SDS011;44880;52.814;18.270;2023-05-31T09:46:40;7.00;;;1.90;;
59093;SDS011;44880;52.814;18.270;2023-05-31T09:49:12;5.40;;;1.50;;
59093;SDS011;44880;52.814;18.270;2023-05-31T09:51:50;5.20;;;1.40;;
59093;SDS011;44880;52.814;18.270;2023-05-31T09:54:31;5.60;;;1.40;;
59093;SDS011;44880;52.814;18.270;2023-05-31T09:57:13;7.60;;;1.40;;
59093;SDS011;44880;52.814;18.270;2023-05-31T10:00:18;6.90;;;1.50;;
59093;SDS011;44880;52.814;18.270;2023-05-31T10:02:51;5.70;;;1.50;;
59093;SDS011;44880;52.814;18.270;2023-05-31T10:05:30;4.70;;;1.30;;
59093;SDS011;44880;52.814;18.270;2023-05-31T10:08:02;4.90;;;1.40;;
59093;SDS011;44880;52.814;18.270;2023-05-31T10:10:34;4.80;;;1.30;;
59093;SDS011;44880;52.814;18.270;2023-05-31T10:15:41;4.90;;;1.30;;
59093;SDS011;44880;52.814;18.270;2023-05-31T10:18:18;6.00;;;1.50;;
59093;SDS011;44880;52.814;18.270;2023-05-31T10:20:54;4.90;;;1.30;;
59093;SDS011;44880;52.814;18.270;2023-05-31T10:26:29;4.00;;;1.20;;
59093;SDS011;44880;52.814;18.270;2023-05-31T10:32:06;5.30;;;1.30;;
59093;SDS011;44880;52.814;18.270;2023-05-31T10:37:38;5.20;;;1.50;;
59093;SDS011;44880;52.814;18.270;2023-05-31T10:40:12;6.90;;;1.40;;
59093;SDS011;44880;52.814;18.270;2023-05-31T10:43:08;6.40;;;1.40;;
59093;SDS011;44880;52.814;18.270;2023-05-31T10:45:43;6.90;;;1.40;;
59093;SDS011;44880;52.814;18.270;2023-05-31T10:51:09;5.20;;;1.40;;
59093;SDS011;44880;52.814;18.270;2023-05-31T10:53:41;5.70;;;1.20;;
59093;SDS011;44880;52.814;18.270;2023-05-31T10:59:12;4.70;;;1.60;;
59093;SDS011;44880;52.814;18.270;2023-05-31T11:04:43;6.00;;;1.30;;
59093;SDS011;44880;52.814;18.270;2023-05-31T11:07:18;7.60;;;1.40;;
59093;SDS011;44880;52.814;18.270;2023-05-31T11:10:28;6.90;;;1.40;;
59093;SDS011;44880;52.814;18.270;2023-05-31T11:15:56;6.00;;;1.50;;
59093;SDS011;44880;52.814;18.270;2023-05-31T11:18:27;5.90;;;1.40;;
59093;SDS011;44880;52.814;18.270;2023-05-31T11:21:15;5.90;;;1.60;;
59093;SDS011;44880;52.814;18.270;2023-05-31T11:24:07;6.80;;;1.60;;
59093;SDS011;44880;52.814;18.270;2023-05-31T11:32:57;6.30;;;1.60;;
59093;SDS011;44880;52.814;18.270;2023-05-31T11:38:20;5.40;;;1.30;;
59093;SDS011;44880;52.814;18.270;2023-05-31T11:40:52;5.20;;;1.40;;
59093;SDS011;44880;52.814;18.270;2023-05-31T11:43:32;5.50;;;1.40;;
59093;SDS011;44880;52.814;18.270;2023-05-31T11:46:11;6.30;;;1.50;;
59093;SDS011;44880;52.814;18.270;2023-05-31T11:48:43;6.40;;;1.50;;
59093;SDS011;44880;52.814;18.270;2023-05-31T11:51:15;5.70;;;1.20;;
59093;SDS011;44880;52.814;18.270;2023-05-31T11:54:06;6.70;;;1.50;;
59093;SDS011;44880;52.814;18.270;2023-05-31T11:56:40;7.20;;;1.70;;
59093;SDS011;44880;52.814;18.270;2023-05-31T11:59:13;6.70;;;1.60;;
59093;SDS011;44880;52.814;18.270;2023-05-31T12:01:59;6.20;;;1.50;;
59093;SDS011;44880;52.814;18.270;2023-05-31T12:04:32;6.80;;;1.50;;
59093;SDS011;44880;52.814;18.270;2023-05-31T12:07:21;7.30;;;1.60;;
59093;SDS011;44880;52.814;18.270;2023-05-31T12:09:52;7.20;;;1.70;;
59093;SDS011;44880;52.814;18.270;2023-05-31T12:12:24;5.80;;;1.60;;
59093;SDS011;44880;52.814;18.270;2023-05-31T12:14:56;5.80;;;1.70;;
59093;SDS011;44880;52.814;18.270;2023-05-31T12:17:31;7.40;;;1.60;;
59093;SDS011;44880;52.814;18.270;2023-05-31T12:20:03;8.20;;;1.70;;
59093;SDS011;44880;52.814;18.270;2023-05-31T12:22:37;7.60;;;1.90;;
59093;SDS011;44880;52.814;18.270;2023-05-31T12:25:12;6.40;;;1.60;;
59093;SDS011;44880;52.814;18.270;2023-05-31T12:27:44;7.70;;;1.70;;
59093;SDS011;44880;52.814;18.270;2023-05-31T12:30:17;7.10;;;1.70;;
59093;SDS011;44880;52.814;18.270;2023-05-31T12:32:48;7.10;;;1.70;;
59093;SDS011;44880;52.814;18.270;2023-05-31T12:38:10;6.80;;;1.80;;
59093;SDS011;44880;52.814;18.270;2023-05-31T12:40:42;7.80;;;1.90;;
59093;SDS011;44880;52.814;18.270;2023-05-31T12:46:00;5.70;;;1.50;;
59093;SDS011;44880;52.814;18.270;2023-05-31T12:48:32;5.60;;;1.40;;
59093;SDS011;44880;52.814;18.270;2023-05-31T12:53:52;5.90;;;1.60;;
59093;SDS011;44880;52.814;18.270;2023-05-31T12:56:24;5.80;;;1.30;;
59093;SDS011;44880;52.814;18.270;2023-05-31T13:01:41;6.30;;;1.60;;
59093;SDS011;44880;52.814;18.270;2023-05-31T13:04:13;6.80;;;1.90;;
59093;SDS011;44880;52.814;18.270;2023-05-31T13:09:36;6.60;;;1.40;;
59093;SDS011;44880;52.814;18.270;2023-05-31T13:12:08;5.50;;;1.50;;
59093;SDS011;44880;52.814;18.270;2023-05-31T13:17:39;6.60;;;1.60;;
59093;SDS011;44880;52.814;18.270;2023-05-31T13:20:11;7.30;;;1.40;;
59093;SDS011;44880;52.814;18.270;2023-05-31T13:22:57;6.10;;;1.50;;
59093;SDS011;44880;52.814;18.270;2023-05-31T13:25:29;7.40;;;1.70;;
59093;SDS011;44880;52.814;18.270;2023-05-31T13:28:01;6.40;;;1.70;;
59093;SDS011;44880;52.814;18.270;2023-05-31T13:30:45;8.10;;;1.70;;
59093;SDS011;44880;52.814;18.270;2023-05-31T13:33:16;6.40;;;1.70;;
59093;SDS011;44880;52.814;18.270;2023-05-31T13:35:48;5.60;;;1.40;;
59093;SDS011;44880;52.814;18.270;2023-05-31T13:38:29;6.30;;;1.60;;
59093;SDS011;44880;52.814;18.270;2023-05-31T13:41:04;7.00;;;1.90;;
59093;SDS011;44880;52.814;18.270;2023-05-31T13:43:37;5.90;;;1.50;;
59093;SDS011;44880;52.814;18.270;2023-05-31T13:46:09;5.70;;;1.40;;
59093;SDS011;44880;52.814;18.270;2023-05-31T13:48:58;6.90;;;1.60;;
59093;SDS011;44880;52.814;18.270;2023-05-31T13:51:30;7.10;;;1.60;;
59093;SDS011;44880;52.814;18.270;2023-05-31T13:54:02;7.50;;;1.70;;
59093;SDS011;44880;52.814;18.270;2023-05-31T13:56:50;9.60;;;1.80;;
59093;SDS011;44880;52.814;18.270;2023-05-31T13:59:27;7.20;;;1.70;;
59093;SDS011;44880;52.814;18.270;2023-05-31T14:02:02;7.10;;;1.70;;
59093;SDS011;44880;52.814;18.270;2023-05-31T14:04:41;8.60;;;1.50;;
59093;SDS011;44880;52.814;18.270;2023-05-31T14:07:13;8.60;;;1.50;;
59093;SDS011;44880;52.814;18.270;2023-05-31T14:09:45;8.00;;;1.60;;
59093;SDS011;44880;52.814;18.270;2023-05-31T14:12:37;10.00;;;1.80;;
59093;SDS011;44880;52.814;18.270;2023-05-31T14:15:10;6.20;;;1.60;;
59093;SDS011;44880;52.814;18.270;2023-05-31T14:17:42;6.60;;;1.50;;
59093;SDS011;44880;52.814;18.270;2023-05-31T14:20:33;7.30;;;1.70;;
59093;SDS011;44880;52.814;18.270;2023-05-31T14:23:05;6.20;;;1.50;;
59093;SDS011;44880;52.814;18.270;2023-05-31T14:28:26;8.40;;;1.80;;
59093;SDS011;44880;52.814;18.270;2023-05-31T14:30:57;6.20;;;1.40;;
59093;SDS011;44880;52.814;18.270;2023-05-31T14:38:53;6.40;;;1.60;;
59093;SDS011;44880;52.814;18.270;2023-05-31T14:41:29;5.90;;;1.50;;
59093;SDS011;44880;52.814;18.270;2023-05-31T14:44:07;6.50;;;1.40;;
59093;SDS011;44880;52.814;18.270;2023-05-31T14:46:39;6.40;;;1.70;;
59093;SDS011;44880;52.814;18.270;2023-05-31T14:49:10;5.60;;;1.50;;
59093;SDS011;44880;52.814;18.270;2023-05-31T14:51:56;5.30;;;1.20;;
59093;SDS011;44880;52.814;18.270;2023-05-31T14:54:30;5.60;;;1.30;;
59093;SDS011;44880;52.814;18.270;2023-05-31T14:57:02;7.40;;;1.70;;
59093;SDS011;44880;52.814;18.270;2023-05-31T15:00:02;7.40;;;1.50;;
59093;SDS011;44880;52.814;18.270;2023-05-31T15:02:36;8.00;;;1.60;;
59093;SDS011;44880;52.814;18.270;2023-05-31T15:05:23;7.80;;;1.60;;
59093;SDS011;44880;52.814;18.270;2023-05-31T15:07:54;7.60;;;1.30;;
59093;SDS011;44880;52.814;18.270;2023-05-31T15:10:26;6.00;;;1.40;;
59093;SDS011;44880;52.814;18.270;2023-05-31T15:13:15;6.20;;;1.60;;
59093;SDS011;44880;52.814;18.270;2023-05-31T15:15:46;6.70;;;1.50;;
59093;SDS011;44880;52.814;18.270;2023-05-31T15:18:18;5.70;;;1.30;;
59093;SDS011;44880;52.814;18.270;2023-05-31T15:20:59;6.40;;;1.50;;
59093;SDS011;44880;52.814;18.270;2023-05-31T15:23:38;5.40;;;1.50;;
59093;SDS011;44880;52.814;18.270;2023-05-31T15:26:10;4.30;;;1.40;;
59093;SDS011;44880;52.814;18.270;2023-05-31T15:31:40;6.50;;;1.30;;
59093;SDS011;44880;52.814;18.270;2023-05-31T15:34:12;5.80;;;1.30;;
59093;SDS011;44880;52.814;18.270;2023-05-31T15:39:39;5.70;;;1.20;;
59093;SDS011;44880;52.814;18.270;2023-05-31T15:42:19;4.20;;;1.20;;
59093;SDS011;44880;52.814;18.270;2023-05-31T15:44:53;9.90;;;1.60;;
59093;SDS011;44880;52.814;18.270;2023-05-31T15:47:26;5.00;;;1.40;;
59093;SDS011;44880;52.814;18.270;2023-05-31T15:49:58;8.10;;;1.70;;
59093;SDS011;44880;52.814;18.270;2023-05-31T15:52:41;7.60;;;1.50;;
59093;SDS011;44880;52.814;18.270;2023-05-31T15:55:13;6.10;;;1.30;;
59093;SDS011;44880;52.814;18.270;2023-05-31T15:57:44;5.60;;;1.30;;
59093;SDS011;44880;52.814;18.270;2023-05-31T16:00:23;6.30;;;1.40;;
59093;SDS011;44880;52.814;18.270;2023-05-31T16:02:59;6.80;;;1.40;;
59093;SDS011;44880;52.814;18.270;2023-05-31T16:05:31;5.80;;;1.40;;
59093;SDS011;44880;52.814;18.270;2023-05-31T16:08:03;4.90;;;1.30;;
59093;SDS011;44880;52.814;18.270;2023-05-31T16:10:55;6.40;;;1.40;;
59093;SDS011;44880;52.814;18.270;2023-05-31T16:13:27;6.70;;;1.50;;
59093;SDS011;44880;52.814;18.270;2023-05-31T16:18:50;6.10;;;1.40;;
59093;SDS011;44880;52.814;18.270;2023-05-31T16:21:24;5.20;;;1.20;;
59093;SDS011;44880;52.814;18.270;2023-05-31T16:26:51;5.50;;;1.40;;
59093;SDS011;44880;52.814;18.270;2023-05-31T16:29:22;5.10;;;1.40;;
59093;SDS011;44880;52.814;18.270;2023-05-31T16:32:07;6.20;;;1.40;;
59093;SDS011;44880;52.814;18.270;2023-05-31T16:34:38;6.50;;;1.20;;
59093;SDS011;44880;52.814;18.270;2023-05-31T16:37:10;6.00;;;1.30;;
59093;SDS011;44880;52.814;18.270;2023-05-31T16:42:39;4.70;;;1.30;;
59093;SDS011;44880;52.814;18.270;2023-05-31T16:45:10;4.90;;;1.40;;
59093;SDS011;44880;52.814;18.270;2023-05-31T16:47:57;6.60;;;1.50;;
59093;SDS011;44880;52.814;18.270;2023-05-31T16:50:29;7.90;;;1.50;;
59093;SDS011;44880;52.814;18.270;2023-05-31T16:53:00;6.30;;;1.30;;
59093;SDS011;44880;52.814;18.270;2023-05-31T16:58:28;8.80;;;1.60;;
59093;SDS011;44880;52.814;18.270;2023-05-31T17:01:00;6.50;;;1.50;;
59093;SDS011;44880;52.814;18.270;2023-05-31T17:03:50;5.00;;;1.60;;
59093;SDS011;44880;52.814;18.270;2023-05-31T17:06:22;7.20;;;1.70;;